createdAt,value
2022-08-08T00:01:00.072Z,100097.06
2022-08-08T00:01:17.365Z,100087.44
2022-08-08T00:02:35.765Z,100094.56
2022-08-08T00:03:33.264Z,100089.66
2022-08-08T00:04:32.838Z,100082.75
2022-08-08T00:06:03.683Z,100087.19
2022-08-08T00:06:57.525Z,100085.50
2022-08-08T00:08:09.129Z,100084.16
2022-08-08T00:09:03.131Z,100072.38
2022-08-08T00:10:00.704Z,100090.47
2022-08-08T00:11:13.098Z,100087.44
2022-08-08T00:12:09.726Z,100083.75
2022-08-08T00:13:10.655Z,100074.25
2022-08-08T00:14:16.903Z,100076.19
2022-08-08T00:15:56.511Z,100082.34
2022-08-08T00:16:47.103Z,100082.56
2022-08-08T00:18:03.293Z,100082.34
2022-08-08T00:19:04.827Z,100083.16
2022-08-08T00:20:01.803Z,100086.72
2022-08-08T00:20:58.115Z,100079.59
2022-08-08T00:21:51.864Z,100083.16
2022-08-08T00:22:46.924Z,100082.69
2022-08-08T00:23:55.125Z,100082.69
2022-08-08T00:24:50.065Z,100086.25
2022-08-08T00:25:46.857Z,100081.50
2022-08-08T00:26:44.214Z,100081.16
2022-08-08T00:27:34.907Z,100080.75
2022-08-08T00:28:35.417Z,100089.59
2022-08-08T00:29:45.987Z,100085.44
2022-08-08T00:30:37.712Z,100079.09
2022-08-08T00:32:21.338Z,100075.16
2022-08-08T00:32:58.355Z,100074.69
2022-08-08T00:34:37.848Z,100073.28
2022-08-08T00:35:58.494Z,100062.03
2022-08-08T00:36:51.600Z,100058.22
2022-08-08T00:38:31.345Z,100067.50
2022-08-08T00:39:36.240Z,100068.78
2022-08-08T00:41:11.792Z,100074.16
2022-08-08T00:42:30.387Z,100073.91
2022-08-08T00:43:58.787Z,100079.50
2022-08-08T00:45:27.202Z,100074.03
2022-08-08T00:46:18.744Z,100075.16
2022-08-08T00:47:23.346Z,100077.09
2022-08-08T00:48:30.067Z,100083.84
2022-08-08T00:49:32.413Z,100081.56
2022-08-08T00:51:08.166Z,100080.16
2022-08-08T00:52:23.063Z,100097.72
2022-08-08T00:53:57.129Z,100099.59
2022-08-08T00:55:07.623Z,100094.97
2022-08-08T00:56:34.123Z,100097.50
2022-08-08T00:57:58.228Z,100093.06
2022-08-08T00:58:54.432Z,100098.94
2022-08-08T01:00:06.739Z,100094.50
2022-08-08T01:01:37.799Z,100099.16
2022-08-08T01:04:01.252Z,100099.06
2022-08-08T01:04:36.083Z,100102.69
2022-08-08T01:06:16.200Z,100099.94
2022-08-08T01:07:34.373Z,100104.84
2022-08-08T01:09:36.845Z,100098.63
2022-08-08T01:10:43.903Z,100095.16
2022-08-08T01:11:37.739Z,100089.00
2022-08-08T01:12:53.713Z,100093.81
2022-08-08T01:13:53.108Z,100084.13
2022-08-08T01:15:43.532Z,100083.16
2022-08-08T01:16:49.965Z,100081.00
2022-08-08T01:18:16.327Z,100076.38
2022-08-08T01:19:51.892Z,100078.06
2022-08-08T01:21:07.683Z,100074.16
2022-08-08T01:22:10.251Z,100076.03
2022-08-08T01:24:02.767Z,100075.22
2022-08-08T01:24:56.064Z,100073.56
2022-08-08T01:26:11.798Z,100075.22
2022-08-08T01:27:16.071Z,100084.31
2022-08-08T01:28:29.753Z,100084.19
2022-08-08T01:29:59.326Z,100087.28
2022-08-08T01:31:25.832Z,100094.09
2022-08-08T01:33:23.452Z,100090.31
2022-08-08T01:34:40.585Z,100092.44
2022-08-08T01:35:51.041Z,100092.09
2022-08-08T01:36:37.829Z,100090.81
2022-08-08T01:37:56.180Z,100090.22
2022-08-08T01:38:45.983Z,100092.34
2022-08-08T01:40:14.611Z,100086.75
2022-08-08T01:41:39.053Z,100083.50
2022-08-08T01:43:01.393Z,100079.34
2022-08-08T01:43:54.447Z,100081.37
2022-08-08T01:44:53.298Z,100078.88
2022-08-08T01:46:07.073Z,100088.37
2022-08-08T01:48:14.380Z,100081.97
2022-08-08T01:48:32.772Z,100087.56
2022-08-08T01:49:59.698Z,100082.44
2022-08-08T01:51:48.969Z,100082.44
2022-08-08T01:52:43.863Z,100085.78
2022-08-08T01:55:17.728Z,100080.44
2022-08-08T01:55:45.513Z,100072.78
2022-08-08T01:56:42.451Z,100075.41
2022-08-08T01:58:11.797Z,100081.00
2022-08-08T01:59:38.210Z,100074.94
2022-08-08T02:00:58.741Z,100080.84
2022-08-08T02:02:05.183Z,100084.56
2022-08-08T02:02:56.979Z,100080.03
2022-08-08T02:03:57.124Z,100084.19
2022-08-08T02:04:52.733Z,100081.69
2022-08-08T02:06:43.322Z,100074.44
2022-08-08T02:08:08.666Z,100077.03
2022-08-08T02:10:02.141Z,100075.38
2022-08-08T02:10:37.071Z,100075.47
2022-08-08T02:11:58.900Z,100075.47
2022-08-08T02:12:52.924Z,100070.97
2022-08-08T02:14:09.064Z,100068.09
2022-08-08T02:15:12.299Z,100063.09
2022-08-08T02:16:20.958Z,100059.75
2022-08-08T02:17:20.323Z,100057.50
2022-08-08T02:18:16.406Z,100060.94
2022-08-08T02:19:57.967Z,100056.06
2022-08-08T02:21:13.310Z,100058.69
2022-08-08T02:22:28.138Z,100060.50
2022-08-08T02:23:31.815Z,100062.62
2022-08-08T02:24:25.032Z,100065.72
2022-08-08T02:25:47.409Z,100066.78
2022-08-08T02:26:44.583Z,100071.66
2022-08-08T02:27:44.843Z,100080.97
2022-08-08T02:29:18.538Z,100080.25
2022-08-08T02:30:20.676Z,100080.25
2022-08-08T02:31:58.303Z,100073.47
2022-08-08T02:33:00.525Z,100071.28
2022-08-08T02:34:07.898Z,100073.56
2022-08-08T02:35:08.555Z,100071.16
2022-08-08T02:36:16.523Z,100062.12
2022-08-08T02:37:51.831Z,100054.97
2022-08-08T02:38:42.143Z,100066.41
2022-08-08T02:39:58.355Z,100070.75
2022-08-08T02:42:04.130Z,100067.31
2022-08-08T02:44:35.156Z,100070.25
2022-08-08T02:44:57.770Z,100083.34
2022-08-08T02:45:54.317Z,100078.25
2022-08-08T02:47:01.513Z,100075.63
2022-08-08T02:48:16.228Z,100071.44
2022-08-08T02:49:50.803Z,100070.25
2022-08-08T02:51:05.383Z,100079.50
2022-08-08T02:52:35.271Z,100075.56
2022-08-08T02:53:53.723Z,100077.09
2022-08-08T02:54:55.763Z,100078.88
2022-08-08T02:56:09.515Z,100085.16
2022-08-08T02:57:12.348Z,100083.72
2022-08-08T02:58:55.573Z,100083.03
2022-08-08T03:00:29.669Z,100081.81
2022-08-08T03:01:49.933Z,100086.09
2022-08-08T03:03:14.926Z,100088.53
2022-08-08T03:05:03.849Z,100082.22
2022-08-08T03:06:43.493Z,100089.81
2022-08-08T03:07:41.853Z,100087.22
2022-08-08T03:09:22.943Z,100078.28
2022-08-08T03:10:44.793Z,100086.69
2022-08-08T03:12:05.774Z,100089.44
2022-08-08T03:15:53.549Z,100082.84
2022-08-08T03:15:58.107Z,100082.69
2022-08-08T03:16:35.315Z,100086.88
2022-08-08T03:17:39.297Z,100079.81
2022-08-08T03:18:53.164Z,100080.28
2022-08-08T03:20:07.893Z,100081.72
2022-08-08T03:20:56.874Z,100080.63
2022-08-08T03:21:58.560Z,100082.31
2022-08-08T03:22:56.054Z,100085.25
2022-08-08T03:23:59.567Z,100086.69
2022-08-08T03:24:52.003Z,100093.25
2022-08-08T03:25:46.206Z,100091.34
2022-08-08T03:26:42.083Z,100092.94
2022-08-08T03:27:42.324Z,100092.56
2022-08-08T03:28:54.113Z,100089.94
2022-08-08T03:29:56.044Z,100088.91
2022-08-08T03:30:49.077Z,100086.62
2022-08-08T03:32:06.593Z,100089.81
2022-08-08T03:33:56.289Z,100088.37
2022-08-08T03:34:20.602Z,100092.56
2022-08-08T03:35:09.693Z,100091.94
2022-08-08T03:35:56.573Z,100083.06
2022-08-08T03:36:44.274Z,100091.84
2022-08-08T03:37:59.370Z,100089.28
2022-08-08T03:38:58.248Z,100097.31
2022-08-08T03:39:51.552Z,100093.16
2022-08-08T03:40:54.217Z,100094.59
2022-08-08T03:42:27.794Z,100094.59
2022-08-08T03:42:49.713Z,100093.28
2022-08-08T03:43:40.184Z,100088.44
2022-08-08T03:44:34.884Z,100095.91
2022-08-08T03:46:06.532Z,100098.63
2022-08-08T03:46:50.398Z,100091.84
2022-08-08T03:47:45.207Z,100102.72
2022-08-08T03:49:09.940Z,100097.25
2022-08-08T03:49:58.156Z,100089.81
2022-08-08T03:50:48.669Z,100096.22
2022-08-08T03:51:46.994Z,100089.22
2022-08-08T03:52:45.307Z,100092.22
2022-08-08T03:53:42.239Z,100094.34
2022-08-08T03:54:41.138Z,100094.09
2022-08-08T03:55:55.683Z,100094.94
2022-08-08T03:56:46.396Z,100091.53
2022-08-08T03:58:33.742Z,100083.91
2022-08-08T03:58:40.293Z,100084.37
2022-08-08T03:59:34.714Z,100083.31
2022-08-08T04:00:56.446Z,100085.34
2022-08-08T04:02:15.794Z,100087.84
2022-08-08T04:03:11.498Z,100090.00
2022-08-08T04:04:01.946Z,100095.00
2022-08-08T04:04:49.155Z,100095.47
2022-08-08T04:05:39.873Z,100097.94
2022-08-08T04:06:38.263Z,100090.59
2022-08-08T04:07:25.174Z,100095.00
2022-08-08T04:08:33.781Z,100096.41
2022-08-08T04:09:21.663Z,100097.84
2022-08-08T04:10:10.169Z,100097.84
2022-08-08T04:11:00.033Z,100097.41
2022-08-08T04:11:57.889Z,100106.81
2022-08-08T04:12:45.483Z,100102.31
2022-08-08T04:13:32.992Z,100108.66
2022-08-08T04:14:39.824Z,100108.47
2022-08-08T04:15:38.359Z,100108.06
2022-08-08T04:16:40.200Z,100103.06
2022-08-08T04:17:58.375Z,100103.91
2022-08-08T04:18:41.814Z,100107.47
2022-08-08T04:19:29.065Z,100107.72
2022-08-08T04:20:28.842Z,100107.00
2022-08-08T04:21:20.112Z,100114.97
2022-08-08T04:22:10.005Z,100117.12
2022-08-08T04:22:58.838Z,100116.16
2022-08-08T04:24:11.972Z,100120.12
2022-08-08T04:24:53.919Z,100119.66
2022-08-08T04:25:42.713Z,100129.78
2022-08-08T04:26:40.257Z,100125.03
2022-08-08T04:28:01.862Z,100123.03
2022-08-08T04:28:44.602Z,100126.13
2022-08-08T04:29:37.448Z,100131.22
2022-08-08T04:30:24.795Z,100128.47
2022-08-08T04:31:11.642Z,100133.84
2022-08-08T04:32:30.916Z,100132.69
2022-08-08T04:33:20.945Z,100124.94
2022-08-08T04:34:07.765Z,100129.00
2022-08-08T04:34:55.666Z,100126.41
2022-08-08T04:35:51.069Z,100130.56
2022-08-08T04:36:38.678Z,100130.78
2022-08-08T04:37:32.263Z,100128.66
2022-08-08T04:38:21.388Z,100142.72
2022-08-08T04:40:04.349Z,100136.88
2022-08-08T04:40:17.845Z,100141.69
2022-08-08T04:41:05.091Z,100141.44
2022-08-08T04:41:54.643Z,100138.59
2022-08-08T04:42:46.585Z,100140.09
2022-08-08T04:43:45.427Z,100134.28
2022-08-08T04:44:33.994Z,100134.75
2022-08-08T04:45:20.938Z,100139.41
2022-08-08T04:46:08.222Z,100135.69
2022-08-08T04:46:55.584Z,100133.06
2022-08-08T04:47:46.339Z,100130.47
2022-08-08T04:48:34.016Z,100132.94
2022-08-08T04:49:21.113Z,100129.59
2022-08-08T04:50:25.228Z,100130.94
2022-08-08T04:51:17.493Z,100136.50
2022-08-08T04:52:10.374Z,100140.88
2022-08-08T04:53:04.558Z,100140.16
2022-08-08T04:54:38.853Z,100146.75
2022-08-08T04:54:59.084Z,100147.59
2022-08-08T04:55:56.128Z,100149.19
2022-08-08T04:56:43.660Z,100151.94
2022-08-08T04:57:31.974Z,100153.16
2022-08-08T04:58:21.753Z,100152.59
2022-08-08T04:59:09.574Z,100146.31
2022-08-08T04:59:59.462Z,100141.22
2022-08-08T05:00:48.336Z,100150.06
2022-08-08T05:01:48.669Z,100149.59
2022-08-08T05:02:36.135Z,100152.91
2022-08-08T05:04:09.415Z,100143.62
2022-08-08T05:04:35.826Z,100145.50
2022-08-08T05:05:44.663Z,100146.59
2022-08-08T05:06:29.958Z,100146.97
2022-08-08T05:07:17.065Z,100149.75
2022-08-08T05:08:04.224Z,100144.03
2022-08-08T05:08:52.393Z,100148.94
2022-08-08T05:09:40.534Z,100145.19
2022-08-08T05:10:30.066Z,100148.91
2022-08-08T05:11:23.812Z,100141.09
2022-08-08T05:12:20.993Z,100151.12
2022-08-08T05:13:12.898Z,100153.88
2022-08-08T05:14:04.853Z,100153.56
2022-08-08T05:14:52.395Z,100154.41
2022-08-08T05:16:51.930Z,100159.75
2022-08-08T05:16:53.078Z,100157.47
2022-08-08T05:17:54.300Z,100162.13
2022-08-08T05:18:41.665Z,100158.25
2022-08-08T05:20:11.635Z,100165.56
2022-08-08T05:20:40.643Z,100163.88
2022-08-08T05:21:43.571Z,100159.66
2022-08-08T05:22:43.834Z,100153.66
2022-08-08T05:23:31.124Z,100159.78
2022-08-08T05:24:28.213Z,100164.25
2022-08-08T05:25:21.365Z,100159.37
2022-08-08T05:26:08.523Z,100169.66
2022-08-08T05:27:01.092Z,100167.22
2022-08-08T05:27:47.885Z,100162.22
2022-08-08T05:28:56.071Z,100163.44
2022-08-08T05:29:42.563Z,100160.38
2022-08-08T05:30:29.386Z,100164.84
2022-08-08T05:32:02.071Z,100162.41
2022-08-08T05:32:24.610Z,100168.84
2022-08-08T05:33:17.041Z,100165.28
2022-08-08T05:34:07.299Z,100167.22
2022-08-08T05:35:04.624Z,100161.00
2022-08-08T05:35:54.422Z,100155.25
2022-08-08T05:36:41.824Z,100154.50
2022-08-08T05:37:52.000Z,100154.66
2022-08-08T05:38:46.963Z,100158.13
2022-08-08T05:39:35.088Z,100157.00
2022-08-08T05:40:28.565Z,100158.13
2022-08-08T05:41:23.159Z,100154.28
2022-08-08T05:42:10.673Z,100158.69
2022-08-08T05:43:17.123Z,100156.34
2022-08-08T05:44:20.134Z,100151.56
2022-08-08T05:45:25.492Z,100161.72
2022-08-08T05:46:19.184Z,100161.78
2022-08-08T05:47:06.364Z,100163.59
2022-08-08T05:48:00.338Z,100155.00
2022-08-08T05:48:52.365Z,100156.97
2022-08-08T05:49:41.664Z,100154.41
2022-08-08T05:50:42.215Z,100163.00
2022-08-08T05:51:48.120Z,100160.19
2022-08-08T05:52:37.634Z,100162.75
2022-08-08T05:54:24.077Z,100163.63
2022-08-08T05:54:50.480Z,100161.91
2022-08-08T05:56:11.348Z,100164.09
2022-08-08T05:56:51.329Z,100173.50
2022-08-08T05:58:04.446Z,100169.69
2022-08-08T05:58:58.044Z,100165.16
2022-08-08T05:59:59.766Z,100163.34
2022-08-08T06:01:00.279Z,100166.53
2022-08-08T06:01:58.047Z,100170.44
2022-08-08T06:03:06.779Z,100171.84
2022-08-08T06:03:55.731Z,100175.47
2022-08-08T06:04:42.795Z,100174.47
2022-08-08T06:06:06.735Z,100177.31
2022-08-08T06:07:00.362Z,100178.03
2022-08-08T06:07:50.194Z,100181.44
2022-08-08T06:08:54.648Z,100177.31
2022-08-08T06:10:00.938Z,100172.91
2022-08-08T06:10:49.457Z,100178.63
2022-08-08T06:11:37.109Z,100179.44
2022-08-08T06:12:34.483Z,100172.19
2022-08-08T06:13:23.267Z,100176.25
2022-08-08T06:14:12.587Z,100176.59
2022-08-08T06:15:06.763Z,100177.53
2022-08-08T06:15:56.466Z,100178.69
2022-08-08T06:16:44.488Z,100171.28
2022-08-08T06:18:18.121Z,100175.47
2022-08-08T06:18:48.178Z,100176.09
2022-08-08T06:19:37.105Z,100177.28
2022-08-08T06:20:25.752Z,100184.19
2022-08-08T06:21:33.255Z,100172.25
2022-08-08T06:22:35.395Z,100175.13
2022-08-08T06:23:26.314Z,100182.63
2022-08-08T06:24:30.770Z,100173.13
2022-08-08T06:26:35.760Z,100180.56
2022-08-08T06:26:35.945Z,100185.34
2022-08-08T06:27:50.463Z,100173.19
2022-08-08T06:28:50.105Z,100182.13
2022-08-08T06:30:00.872Z,100182.72
2022-08-08T06:30:49.105Z,100181.09
2022-08-08T06:31:52.835Z,100183.34
2022-08-08T06:32:52.656Z,100186.34
2022-08-08T06:34:26.406Z,100184.66
2022-08-08T06:36:04.797Z,100187.25
2022-08-08T06:36:13.006Z,100182.41
2022-08-08T06:37:24.015Z,100186.31
2022-08-08T06:38:14.420Z,100180.59
2022-08-08T06:39:06.822Z,100190.63
2022-08-08T06:39:57.065Z,100188.22
2022-08-08T06:40:48.268Z,100188.84
2022-08-08T06:41:50.036Z,100192.69
2022-08-08T06:42:38.894Z,100186.59
2022-08-08T06:43:34.089Z,100187.69
2022-08-08T06:44:25.405Z,100189.06
2022-08-08T06:45:13.684Z,100191.53
2022-08-08T06:46:02.756Z,100186.25
2022-08-08T06:46:50.296Z,100182.13
2022-08-08T06:47:52.534Z,100185.09
2022-08-08T06:48:46.042Z,100191.31
2022-08-08T06:49:56.370Z,100194.13
2022-08-08T06:50:40.951Z,100190.50
2022-08-08T06:51:47.149Z,100194.91
2022-08-08T06:52:35.705Z,100193.16
2022-08-08T06:53:39.218Z,100197.81
2022-08-08T06:54:26.698Z,100193.34
2022-08-08T06:55:13.527Z,100199.41
2022-08-08T06:56:03.480Z,100192.84
2022-08-08T06:56:51.435Z,100191.84
2022-08-08T06:57:54.067Z,100188.53
2022-08-08T06:58:43.106Z,100190.56
2022-08-08T06:59:34.527Z,100191.12
2022-08-08T07:00:41.002Z,100193.09
2022-08-08T07:02:27.221Z,100197.00
2022-08-08T07:02:45.341Z,100199.84
2022-08-08T07:04:36.965Z,100200.44
2022-08-08T07:05:11.891Z,100201.53
2022-08-08T07:06:10.186Z,100202.03
2022-08-08T07:06:59.375Z,100201.12
2022-08-08T07:08:00.489Z,100204.25
2022-08-08T07:08:54.425Z,100201.59
2022-08-08T07:10:00.200Z,100203.53
2022-08-08T07:10:51.005Z,100204.88
2022-08-08T07:11:46.107Z,100200.19
2022-08-08T07:12:43.032Z,100194.03
2022-08-08T07:13:39.386Z,100208.03
2022-08-08T07:14:51.484Z,100199.72
2022-08-08T07:16:10.534Z,100200.22
2022-08-08T07:17:14.585Z,100204.34
2022-08-08T07:18:35.113Z,100200.06
2022-08-08T07:19:44.643Z,100202.87
2022-08-08T07:20:40.541Z,100196.28
2022-08-08T07:21:59.254Z,100205.66
2022-08-08T07:23:22.398Z,100199.03
2022-08-08T07:24:15.170Z,100209.09
2022-08-08T07:25:06.742Z,100212.25
2022-08-08T07:25:56.663Z,100207.31
2022-08-08T07:26:46.831Z,100210.37
2022-08-08T07:28:02.186Z,100215.34
2022-08-08T07:28:49.434Z,100204.88
2022-08-08T07:29:59.912Z,100205.16
2022-08-08T07:30:47.223Z,100208.75
2022-08-08T07:31:35.534Z,100209.78
2022-08-08T07:32:24.353Z,100209.53
2022-08-08T07:33:17.560Z,100208.97
2022-08-08T07:34:09.324Z,100214.00
2022-08-08T07:35:00.788Z,100206.22
2022-08-08T07:35:48.707Z,100209.25
2022-08-08T07:36:48.112Z,100204.59
2022-08-08T07:37:56.508Z,100211.25
2022-08-08T07:38:50.221Z,100210.16
2022-08-08T07:39:45.819Z,100212.03
2022-08-08T07:40:45.645Z,100207.03
2022-08-08T07:42:03.671Z,100213.13
2022-08-08T07:42:46.822Z,100211.44
2022-08-08T07:43:37.614Z,100208.09
2022-08-08T07:44:40.614Z,100207.84
2022-08-08T07:45:34.940Z,100209.25
2022-08-08T07:46:34.684Z,100207.25
2022-08-08T07:47:38.396Z,100210.09
2022-08-08T07:48:29.938Z,100212.59
2022-08-08T07:49:17.095Z,100209.00
2022-08-08T07:50:04.204Z,100215.09
2022-08-08T07:50:52.585Z,100214.28
2022-08-08T07:51:44.990Z,100216.16
2022-08-08T07:52:44.168Z,100220.91
2022-08-08T07:54:01.357Z,100217.59
2022-08-08T07:55:07.693Z,100216.50
2022-08-08T07:55:58.356Z,100221.50
2022-08-08T07:57:10.485Z,100221.19
2022-08-08T07:58:08.476Z,100218.16
2022-08-08T07:58:59.606Z,100216.50
2022-08-08T07:59:57.368Z,100220.09
2022-08-08T08:00:50.381Z,100220.09
2022-08-08T08:02:32.831Z,100216.75
2022-08-08T08:02:47.445Z,100218.16
2022-08-08T08:03:46.429Z,100220.34
2022-08-08T08:04:36.011Z,100220.66
2022-08-08T08:05:33.001Z,100229.22
2022-08-08T08:06:21.865Z,100223.94
2022-08-08T08:07:14.354Z,100223.41
2022-08-08T08:08:18.868Z,100218.41
2022-08-08T08:09:13.706Z,100227.00
2022-08-08T08:10:05.203Z,100213.66
2022-08-08T08:10:56.413Z,100216.72
2022-08-08T08:11:51.484Z,100225.59
2022-08-08T08:12:43.586Z,100221.72
2022-08-08T08:13:42.263Z,100225.59
2022-08-08T08:15:02.924Z,100222.59
2022-08-08T08:16:03.614Z,100226.16
2022-08-08T08:16:51.704Z,100228.41
2022-08-08T08:17:49.061Z,100225.88
2022-08-08T08:18:52.203Z,100223.41
2022-08-08T08:19:46.192Z,100226.47
2022-08-08T08:20:37.394Z,100222.88
2022-08-08T08:21:35.402Z,100225.62
2022-08-08T08:22:33.947Z,100223.97
2022-08-08T08:23:20.916Z,100226.19
2022-08-08T08:24:15.555Z,100225.06
2022-08-08T08:25:08.162Z,100232.28
2022-08-08T08:25:58.542Z,100229.47
2022-08-08T08:26:54.633Z,100235.28
2022-08-08T08:27:46.867Z,100231.97
2022-08-08T08:28:33.884Z,100230.03
2022-08-08T08:29:20.758Z,100229.78
2022-08-08T08:30:08.993Z,100235.84
2022-08-08T08:30:56.646Z,100236.13
2022-08-08T08:31:43.955Z,100232.53
2022-08-08T08:32:41.132Z,100238.31
2022-08-08T08:33:38.448Z,100235.28
2022-08-08T08:34:32.486Z,100236.41
2022-08-08T08:35:29.517Z,100243.81
2022-08-08T08:36:27.619Z,100241.94
2022-08-08T08:37:15.761Z,100248.03
2022-08-08T08:38:17.535Z,100243.03
2022-08-08T08:39:07.507Z,100240.00
2022-08-08T08:40:06.186Z,100246.91
2022-08-08T08:41:00.785Z,100244.97
2022-08-08T08:41:50.705Z,100244.13
2022-08-08T08:42:37.665Z,100241.94
2022-08-08T08:43:26.988Z,100244.69
2022-08-08T08:44:16.451Z,100244.69
2022-08-08T08:45:10.185Z,100249.66
2022-08-08T08:46:10.944Z,100252.41
2022-08-08T08:47:06.595Z,100249.66
2022-08-08T08:47:58.135Z,100253.00
2022-08-08T08:48:49.679Z,100248.03
2022-08-08T08:49:36.664Z,100248.56
2022-08-08T08:50:32.515Z,100249.97
2022-08-08T08:51:21.405Z,100256.59
2022-08-08T08:52:10.154Z,100258.28
2022-08-08T08:52:59.996Z,100258.00
2022-08-08T08:54:01.162Z,100256.88
2022-08-08T08:54:49.390Z,100264.06
2022-08-08T08:55:44.164Z,100265.47
2022-08-08T08:56:32.715Z,100265.75
2022-08-08T08:57:19.991Z,100273.22
2022-08-08T08:58:08.464Z,100272.66
2022-08-08T08:58:58.624Z,100259.38
2022-08-08T09:00:00.053Z,100261.03
2022-08-08T09:01:09.317Z,100259.38
2022-08-08T09:01:58.734Z,100271.81
2022-08-08T09:02:45.886Z,100274.03
2022-08-08T09:03:47.850Z,100275.69
2022-08-08T09:04:44.529Z,100272.38
2022-08-08T09:05:54.545Z,100275.44
2022-08-08T09:06:50.080Z,100275.16
2022-08-08T09:07:39.505Z,100271.53
2022-08-08T09:08:40.367Z,100275.72
2022-08-08T09:09:39.057Z,100280.72
2022-08-08T09:10:29.002Z,100277.09
2022-08-08T09:11:16.824Z,100278.47
2022-08-08T09:12:07.521Z,100275.13
2022-08-08T09:12:56.353Z,100276.78
2022-08-08T09:13:45.572Z,100272.28
2022-08-08T09:14:34.684Z,100274.47
2022-08-08T09:15:37.568Z,100270.81
2022-08-08T09:16:32.789Z,100271.34
2022-08-08T09:17:40.999Z,100273.81
2022-08-08T09:18:27.605Z,100275.84
2022-08-08T09:19:15.095Z,100269.44
2022-08-08T09:22:00.317Z,100266.44
2022-08-08T09:22:01.800Z,100274.47
2022-08-08T09:22:27.446Z,100268.16
2022-08-08T09:23:17.860Z,100262.34
2022-08-08T09:24:13.469Z,100265.91
2022-08-08T09:25:00.875Z,100261.69
2022-08-08T09:25:54.994Z,100260.03
2022-08-08T09:27:42.172Z,100258.66
2022-08-08T09:28:30.769Z,100263.59
2022-08-08T09:29:26.416Z,100266.91
2022-08-08T09:30:17.335Z,100270.00
2022-08-08T09:31:16.377Z,100264.22
2022-08-08T09:32:06.124Z,100268.66
2022-08-08T09:33:13.125Z,100262.81
2022-08-08T09:34:31.261Z,100261.16
2022-08-08T09:35:24.710Z,100256.44
2022-08-08T09:36:22.804Z,100258.63
2022-08-08T09:37:57.718Z,100259.28
2022-08-08T09:38:32.135Z,100255.41
2022-08-08T09:39:21.699Z,100251.56
2022-08-08T09:40:11.963Z,100264.03
2022-08-08T09:41:05.441Z,100254.88
2022-08-08T09:42:20.795Z,100260.94
2022-08-08T09:43:41.213Z,100264.03
2022-08-08T09:44:50.986Z,100272.09
2022-08-08T09:45:55.137Z,100272.94
2022-08-08T09:46:57.476Z,100275.44
2022-08-08T09:48:04.024Z,100275.94
2022-08-08T09:49:18.348Z,100270.94
2022-08-08T09:50:13.947Z,100272.09
2022-08-08T09:51:04.885Z,100271.78
2022-08-08T09:52:06.038Z,100276.22
2022-08-08T09:52:59.315Z,100280.38
2022-08-08T09:54:05.152Z,100287.00
2022-08-08T09:54:56.385Z,100291.75
2022-08-08T09:56:04.632Z,100293.16
2022-08-08T09:56:55.325Z,100289.00
2022-08-08T09:57:46.886Z,100293.16
2022-08-08T09:58:57.915Z,100289.81
2022-08-08T10:00:01.809Z,100287.31
2022-08-08T10:00:57.614Z,100288.19
2022-08-08T10:01:59.689Z,100289.00
2022-08-08T10:02:52.947Z,100292.59
2022-08-08T10:03:40.985Z,100290.94
2022-08-08T10:04:41.898Z,100289.53
2022-08-08T10:05:35.277Z,100291.47
2022-08-08T10:06:26.806Z,100295.91
2022-08-08T10:07:17.487Z,100297.28
2022-08-08T10:08:05.734Z,100294.50
2022-08-08T10:08:57.253Z,100300.03
2022-08-08T10:10:00.300Z,100297.84
2022-08-08T10:10:51.005Z,100301.19
2022-08-08T10:12:26.402Z,100291.19
2022-08-08T10:12:53.394Z,100296.47
2022-08-08T10:14:06.191Z,100290.63
2022-08-08T10:15:00.523Z,100286.78
2022-08-08T10:16:00.613Z,100289.53
2022-08-08T10:16:54.965Z,100293.97
2022-08-08T10:18:06.206Z,100285.41
2022-08-08T10:19:04.583Z,100284.56
2022-08-08T10:19:58.607Z,100288.19
2022-08-08T10:20:58.303Z,100281.22
2022-08-08T10:21:51.163Z,100287.31
2022-08-08T10:22:54.834Z,100278.66
2022-08-08T10:23:50.826Z,100283.31
2022-08-08T10:24:47.314Z,100278.78
2022-08-08T10:25:56.208Z,100281.59
2022-08-08T10:26:59.017Z,100274.75
2022-08-08T10:27:51.990Z,100281.63
2022-08-08T10:28:57.164Z,100279.09
2022-08-08T10:29:59.812Z,100281.19
2022-08-08T10:31:01.148Z,100285.34
2022-08-08T10:32:07.290Z,100287.41
2022-08-08T10:33:00.436Z,100284.97
2022-08-08T10:34:18.821Z,100284.97
2022-08-08T10:35:07.759Z,100285.03
2022-08-08T10:36:20.337Z,100295.63
2022-08-08T10:37:11.315Z,100293.69
2022-08-08T10:38:03.145Z,100298.97
2022-08-08T10:38:53.874Z,100298.66
2022-08-08T10:39:54.561Z,100301.72
2022-08-08T10:40:43.094Z,100298.94
2022-08-08T10:41:35.307Z,100301.72
2022-08-08T10:42:34.068Z,100298.91
2022-08-08T10:43:22.996Z,100301.41
2022-08-08T10:44:12.649Z,100301.69
2022-08-08T10:45:08.061Z,100306.84
2022-08-08T10:45:58.695Z,100300.12
2022-08-08T10:46:46.278Z,100293.72
2022-08-08T10:47:44.146Z,100294.47
2022-08-08T10:48:57.559Z,100300.06
2022-08-08T10:50:01.551Z,100289.88
2022-08-08T10:50:49.325Z,100294.28
2022-08-08T10:51:47.459Z,100295.59
2022-08-08T10:52:41.263Z,100291.41
2022-08-08T10:53:56.349Z,100295.53
2022-08-08T10:55:00.583Z,100294.31
2022-08-08T10:55:58.135Z,100290.19
2022-08-08T10:56:44.954Z,100294.56
2022-08-08T10:57:50.787Z,100295.88
2022-08-08T10:58:47.410Z,100302.97
2022-08-08T10:59:45.525Z,100294.37
2022-08-08T11:00:35.588Z,100293.97
2022-08-08T11:01:39.436Z,100293.63
2022-08-08T11:02:31.357Z,100294.75
2022-08-08T11:03:19.289Z,100298.88
2022-08-08T11:04:38.707Z,100295.97
2022-08-08T11:05:38.319Z,100305.88
2022-08-08T11:06:35.126Z,100302.41
2022-08-08T11:08:29.919Z,100295.03
2022-08-08T11:08:38.992Z,100304.91
2022-08-08T11:09:32.123Z,100303.50
2022-08-08T11:10:28.969Z,100307.78
2022-08-08T11:11:32.026Z,100308.94
2022-08-08T11:12:23.544Z,100309.25
2022-08-08T11:13:31.661Z,100320.41
2022-08-08T11:14:21.759Z,100322.37
2022-08-08T11:15:15.622Z,100334.06
2022-08-08T11:16:07.775Z,100337.00
2022-08-08T11:16:58.596Z,100334.81
2022-08-08T11:17:59.907Z,100338.13
2022-08-08T11:18:51.012Z,100336.84
2022-08-08T11:19:37.992Z,100331.19
2022-08-08T11:20:29.254Z,100326.94
2022-08-08T11:21:20.228Z,100323.94
2022-08-08T11:22:08.194Z,100324.34
2022-08-08T11:22:55.044Z,100326.91
2022-08-08T11:23:43.033Z,100318.16
2022-08-08T11:24:31.008Z,100321.63
2022-08-08T11:25:18.573Z,100326.81
2022-08-08T11:26:07.154Z,100324.53
2022-08-08T11:26:58.113Z,100331.03
2022-08-08T11:27:47.154Z,100335.22
2022-08-08T11:28:38.795Z,100334.94
2022-08-08T11:29:41.776Z,100331.03
2022-08-08T11:30:35.513Z,100339.16
2022-08-08T11:31:30.070Z,100344.75
2022-08-08T11:32:32.561Z,100341.47
2022-08-08T11:33:52.019Z,100345.09
2022-08-08T11:35:07.950Z,100333.38